createdAt,value
2022-10-20T04:02:39.704Z,17.83
2022-10-20T04:05:07.129Z,15.75
2022-10-20T04:07:33.659Z,16.13
2022-10-20T04:10:02.445Z,15.85
2022-10-20T04:12:29.842Z,14.55
2022-10-20T04:14:56.419Z,14.68
2022-10-20T04:17:23.176Z,14.57
2022-10-20T04:19:49.690Z,14.03
2022-10-20T04:22:16.663Z,14.30
2022-10-20T04:24:43.535Z,13.93
2022-10-20T04:27:10.437Z,13.02
2022-10-20T04:29:37.729Z,13.65
2022-10-20T04:32:04.578Z,13.73
2022-10-20T04:34:31.216Z,13.10
2022-10-20T04:36:58.314Z,14.43
2022-10-20T04:39:25.528Z,14.10
2022-10-20T04:41:52.082Z,13.18
2022-10-20T04:44:18.628Z,12.53
2022-10-20T04:46:45.253Z,13.88
2022-10-20T04:49:11.783Z,14.02
2022-10-20T04:51:38.334Z,12.85
2022-10-20T04:56:36.520Z,13.43
2022-10-20T04:59:03.960Z,13.75
2022-10-20T05:01:31.199Z,13.45
2022-10-20T05:03:58.130Z,13.43
2022-10-20T05:06:30.996Z,13.65
2022-10-20T05:09:00.466Z,13.23
2022-10-20T05:11:29.812Z,13.73
2022-10-20T05:13:56.966Z,13.10
2022-10-20T05:16:24.204Z,13.27
2022-10-20T05:18:53.555Z,13.52
2022-10-20T05:21:23.763Z,13.50
2022-10-20T05:23:56.414Z,13.20
2022-10-20T05:26:23.603Z,13.43
2022-10-20T05:28:51.695Z,13.57
2022-10-20T05:31:21.015Z,13.20
2022-10-20T05:33:53.947Z,13.63
2022-10-20T05:36:23.863Z,12.05
2022-10-20T05:38:52.264Z,12.88
2022-10-20T05:41:21.796Z,13.00
2022-10-20T05:44:03.370Z,13.18
2022-10-20T05:46:32.497Z,13.13
2022-10-20T05:49:01.037Z,14.27
2022-10-20T05:51:30.892Z,13.60
2022-10-20T05:53:59.226Z,13.02
2022-10-20T05:56:27.349Z,13.48
2022-10-20T05:58:53.951Z,12.47
2022-10-20T06:01:26.315Z,13.50
2022-10-20T06:03:57.507Z,12.88
2022-10-20T06:06:26.762Z,13.60
2022-10-20T06:08:53.987Z,13.80
2022-10-20T06:11:22.232Z,12.70
2022-10-20T06:13:51.891Z,13.57
2022-10-20T06:16:25.405Z,14.45
2022-10-20T06:18:52.449Z,14.05
2022-10-20T06:21:22.066Z,13.13
2022-10-20T06:23:49.045Z,13.57
2022-10-20T06:26:18.184Z,13.48
2022-10-20T06:28:47.104Z,14.82
2022-10-20T06:31:19.160Z,14.00
2022-10-20T06:33:46.683Z,13.30
2022-10-20T06:36:14.103Z,14.00
2022-10-20T06:38:41.450Z,13.65
2022-10-20T06:41:10.476Z,13.65
2022-10-20T06:43:37.209Z,13.45
2022-10-20T06:46:05.905Z,13.38
2022-10-20T06:48:35.164Z,14.10
2022-10-20T06:51:06.544Z,13.27
2022-10-20T06:53:34.849Z,13.80
2022-10-20T06:56:06.231Z,13.45
2022-10-20T06:58:34.518Z,13.57
2022-10-20T07:01:09.978Z,14.37
2022-10-20T07:03:38.770Z,13.48
2022-10-20T07:06:07.069Z,13.30
2022-10-20T07:08:36.313Z,13.15
2022-10-20T07:11:08.947Z,13.38
2022-10-20T07:13:37.655Z,14.07
2022-10-20T07:16:05.694Z,13.60
2022-10-20T07:18:32.791Z,13.68
2022-10-20T07:21:01.836Z,14.20
2022-10-20T07:23:30.256Z,14.10
2022-10-20T07:26:05.656Z,14.43
2022-10-20T07:28:33.086Z,13.95
2022-10-20T07:31:09.157Z,13.18
2022-10-20T07:33:36.070Z,13.20
2022-10-20T07:36:18.562Z,14.07
2022-10-20T07:38:46.828Z,13.53
2022-10-20T07:41:14.244Z,13.70
2022-10-20T07:43:42.220Z,13.52
2022-10-20T07:46:10.639Z,13.60
2022-10-20T07:48:37.596Z,14.35
2022-10-20T07:51:24.975Z,14.07
2022-10-20T07:53:58.120Z,14.05
2022-10-20T07:56:35.782Z,14.05
2022-10-20T07:59:03.259Z,14.73
2022-10-20T08:01:30.153Z,13.32
2022-10-20T08:03:56.911Z,13.77
2022-10-20T08:06:23.615Z,12.85
2022-10-20T08:08:50.425Z,13.35
2022-10-20T08:11:17.128Z,13.57
2022-10-20T08:13:43.973Z,13.52
2022-10-20T08:16:16.236Z,13.23
2022-10-20T08:21:36.011Z,12.88
2022-10-20T08:21:36.908Z,13.00
2022-10-20T08:24:02.852Z,13.52
2022-10-20T08:26:29.568Z,12.85
2022-10-20T08:28:56.068Z,13.30
2022-10-20T08:31:23.438Z,12.63
2022-10-20T08:33:52.857Z,12.88
2022-10-20T08:36:20.902Z,13.38
2022-10-20T08:38:48.468Z,12.68
2022-10-20T08:41:21.928Z,12.97
2022-10-20T08:43:51.027Z,12.43
2022-10-20T08:46:20.648Z,12.88
2022-10-20T08:48:48.079Z,12.38
2022-10-20T08:51:26.787Z,12.90
2022-10-20T08:53:56.938Z,12.73
2022-10-20T08:56:25.905Z,12.40
2022-10-20T08:58:53.154Z,13.20
2022-10-20T09:01:26.979Z,12.63
2022-10-20T09:04:16.445Z,12.00
2022-10-20T09:06:45.599Z,12.47
2022-10-20T09:09:18.257Z,12.38
2022-10-20T09:11:45.455Z,12.02
2022-10-20T09:14:12.716Z,12.38
2022-10-20T09:16:58.684Z,11.93
2022-10-20T09:19:27.198Z,12.07
2022-10-20T09:21:57.774Z,11.90
2022-10-20T09:24:27.941Z,12.13
2022-10-20T09:26:59.120Z,12.13
2022-10-20T09:29:37.519Z,11.82
2022-10-20T09:32:44.812Z,12.83
2022-10-20T09:35:17.220Z,11.60
2022-10-20T09:37:49.771Z,12.85
2022-10-20T09:40:18.069Z,12.13
2022-10-20T09:42:54.537Z,12.23
2022-10-20T09:45:23.814Z,12.13
2022-10-20T09:47:56.486Z,12.43
2022-10-20T09:50:33.795Z,11.43
2022-10-20T09:53:04.184Z,12.63
2022-10-20T09:55:37.579Z,11.90
2022-10-20T09:58:05.945Z,11.63
2022-10-20T10:00:37.661Z,12.65
2022-10-20T10:03:22.759Z,11.98
2022-10-20T10:05:58.066Z,11.68
2022-10-20T10:08:28.940Z,11.90
2022-10-20T10:11:00.344Z,11.80
2022-10-20T10:13:30.510Z,13.45
2022-10-20T10:16:08.740Z,11.93
2022-10-20T10:18:37.404Z,11.68
2022-10-20T10:21:09.974Z,11.98
2022-10-20T10:23:49.640Z,13.07
2022-10-20T10:26:37.605Z,12.80
2022-10-20T10:29:04.879Z,12.27
2022-10-20T10:31:33.509Z,12.68
2022-10-20T10:34:12.336Z,13.38
2022-10-20T10:36:38.882Z,13.53
2022-10-20T10:39:10.693Z,13.07
2022-10-20T10:42:00.875Z,13.82
2022-10-20T10:44:30.865Z,14.02
2022-10-20T10:47:16.872Z,13.77
2022-10-20T10:50:03.703Z,13.60
2022-10-20T10:52:39.342Z,14.63
2022-10-20T10:55:44.088Z,14.18
2022-10-20T10:58:21.092Z,15.45
2022-10-20T11:01:00.165Z,15.20
2022-10-20T11:03:54.515Z,14.97
2022-10-20T11:06:21.028Z,14.95
2022-10-20T11:09:13.610Z,15.95
2022-10-20T11:11:52.723Z,15.65
2022-10-20T11:14:25.348Z,16.65
2022-10-20T11:17:00.494Z,16.23
2022-10-20T11:19:39.763Z,16.23
2022-10-20T11:22:20.310Z,15.40
2022-10-20T11:24:52.929Z,16.45
2022-10-20T11:27:25.750Z,16.83
2022-10-20T11:29:57.940Z,16.73
2022-10-20T11:32:39.569Z,17.17
2022-10-20T11:35:33.526Z,16.58
2022-10-20T11:38:18.671Z,16.27
2022-10-20T11:40:51.258Z,15.90
2022-10-20T11:43:40.122Z,15.87
2022-10-20T11:46:11.231Z,17.05
2022-10-20T11:48:45.858Z,17.02
2022-10-20T11:51:36.187Z,16.38
2022-10-20T11:54:40.543Z,15.70
2022-10-20T11:57:25.261Z,15.60
2022-10-20T12:03:14.394Z,15.20
2022-10-20T12:05:53.219Z,16.58
2022-10-20T12:08:44.749Z,16.13
2022-10-20T12:11:27.340Z,16.97
2022-10-20T12:13:59.601Z,16.48
2022-10-20T12:16:54.054Z,17.88
2022-10-20T12:19:29.682Z,17.98
2022-10-20T12:22:13.986Z,18.60
2022-10-20T12:24:49.900Z,17.97
2022-10-20T12:27:25.429Z,17.52
2022-10-20T12:29:54.632Z,17.10
2022-10-20T12:32:38.445Z,17.85
2022-10-20T12:35:11.497Z,16.20
2022-10-20T12:37:42.156Z,16.10
2022-10-20T12:40:11.242Z,16.20
2022-10-20T12:42:47.256Z,15.52
2022-10-20T12:45:19.667Z,13.75
2022-10-20T12:47:52.260Z,14.82
2022-10-20T12:50:39.150Z,14.30
2022-10-20T12:53:32.644Z,15.05
2022-10-20T12:56:10.352Z,15.25
2022-10-20T12:58:39.010Z,15.13
2022-10-20T13:01:08.734Z,14.75
2022-10-20T13:03:37.231Z,14.63
2022-10-20T13:06:23.786Z,15.63
2022-10-20T13:09:10.352Z,15.95
2022-10-20T13:11:40.904Z,16.58
2022-10-20T13:14:20.256Z,16.63
2022-10-20T13:16:51.022Z,15.93
2022-10-20T13:19:24.856Z,17.17
2022-10-20T13:21:51.559Z,16.30
2022-10-20T13:24:44.993Z,17.02
2022-10-20T13:27:12.002Z,17.05
2022-10-20T13:29:43.120Z,17.50
2022-10-20T13:32:28.583Z,17.35
2022-10-20T13:35:04.782Z,18.10
2022-10-20T13:37:38.090Z,18.33
2022-10-20T13:40:24.077Z,16.92
2022-10-20T13:43:02.761Z,18.87
2022-10-20T13:45:53.726Z,16.42
2022-10-20T13:48:32.267Z,16.65
2022-10-20T13:51:05.874Z,14.32
2022-10-20T13:53:37.316Z,14.73
2022-10-20T13:56:19.021Z,15.27
2022-10-20T13:59:18.733Z,14.93
2022-10-20T14:01:54.381Z,14.98
2022-10-20T14:04:31.544Z,15.10
2022-10-20T14:07:13.291Z,15.48
2022-10-20T14:09:45.248Z,15.03
2022-10-20T14:12:22.825Z,15.02
2022-10-20T14:14:49.517Z,15.90
2022-10-20T14:17:21.683Z,17.42
2022-10-20T14:19:48.642Z,16.00
2022-10-20T14:22:15.119Z,16.03
2022-10-20T14:24:47.251Z,15.40
2022-10-20T14:27:26.947Z,14.35
2022-10-20T14:29:54.366Z,13.85
2022-10-20T14:32:25.857Z,13.70
2022-10-20T14:35:01.678Z,13.17
2022-10-20T14:37:35.657Z,12.63
2022-10-20T14:40:06.496Z,12.15
2022-10-20T14:42:34.075Z,11.63
2022-10-20T14:45:03.285Z,10.80
2022-10-20T14:47:40.045Z,11.00
2022-10-20T14:50:07.309Z,10.60
2022-10-20T14:52:38.581Z,11.00
2022-10-20T14:55:37.009Z,10.77
2022-10-20T14:58:04.107Z,11.55
2022-10-20T15:00:36.792Z,12.10
2022-10-20T15:03:07.508Z,11.10
2022-10-20T15:05:36.364Z,11.40
2022-10-20T15:08:21.630Z,10.70
2022-10-20T15:10:48.375Z,11.45
2022-10-20T15:13:27.998Z,11.57
2022-10-20T15:15:56.325Z,11.53
2022-10-20T15:18:24.808Z,11.50
2022-10-20T15:20:53.376Z,12.38
2022-10-20T15:23:22.679Z,12.13
2022-10-20T15:26:00.412Z,11.70
2022-10-20T15:28:43.941Z,11.50
2022-10-20T15:31:13.320Z,12.73
2022-10-20T15:33:40.604Z,12.90
2022-10-20T15:36:20.720Z,14.95
2022-10-20T15:38:50.926Z,14.35
2022-10-20T15:41:30.091Z,14.43
2022-10-20T15:43:56.987Z,15.70
2022-10-20T15:46:23.537Z,15.57
2022-10-20T15:48:50.070Z,16.80
2022-10-20T15:51:22.521Z,16.02
2022-10-20T15:53:49.995Z,17.13
2022-10-20T15:56:17.367Z,17.75
2022-10-20T15:58:44.421Z,16.95
2022-10-20T16:01:16.899Z,16.77
2022-10-20T16:03:44.148Z,16.20
2022-10-20T16:06:13.521Z,16.50
2022-10-20T16:08:41.573Z,17.25
2022-10-20T16:11:08.963Z,16.88
2022-10-20T16:13:48.896Z,17.80
2022-10-20T16:16:18.853Z,18.42
2022-10-20T16:18:45.708Z,17.93
2022-10-20T16:21:12.604Z,20.23
2022-10-20T16:23:42.328Z,22.02
2022-10-20T16:26:12.580Z,20.65
2022-10-20T16:28:39.121Z,20.40
2022-10-20T16:31:10.934Z,19.33
2022-10-20T16:33:37.902Z,19.40
2022-10-20T16:38:40.184Z,16.88
2022-10-20T16:41:10.213Z,18.02
2022-10-20T16:43:38.754Z,17.30
2022-10-20T16:46:06.875Z,18.95
2022-10-20T16:48:35.703Z,18.10
2022-10-20T16:51:10.094Z,18.02
2022-10-20T16:53:37.110Z,17.88
2022-10-20T16:56:04.621Z,18.13
2022-10-20T16:58:31.164Z,17.83
2022-10-20T17:01:04.253Z,17.92
2022-10-20T17:03:31.157Z,18.38
2022-10-20T17:05:59.652Z,20.48
2022-10-20T17:08:27.939Z,18.77
2022-10-20T17:10:56.706Z,19.20
2022-10-20T17:13:23.288Z,19.40
2022-10-20T17:15:50.206Z,20.02
2022-10-20T17:18:17.220Z,20.10
2022-10-20T17:20:43.753Z,20.57
2022-10-20T17:23:10.307Z,19.90
2022-10-20T17:25:37.478Z,19.05
2022-10-20T17:28:04.129Z,18.85
2022-10-20T17:30:30.621Z,19.05
2022-10-20T17:32:57.138Z,18.83
2022-10-20T17:35:23.663Z,18.73
2022-10-20T17:37:50.113Z,17.80
2022-10-20T17:42:44.001Z,18.30
2022-10-20T17:45:10.686Z,18.07
2022-10-20T17:47:37.205Z,18.00
2022-10-20T17:50:04.262Z,18.88
2022-10-20T17:52:30.793Z,18.15
2022-10-20T17:54:57.256Z,18.10
2022-10-20T17:57:24.051Z,18.63
2022-10-20T17:59:53.424Z,18.38
2022-10-20T18:02:23.761Z,18.40
2022-10-20T18:04:51.122Z,17.60
2022-10-20T18:07:17.686Z,19.05
2022-10-20T18:09:44.603Z,18.00
2022-10-20T18:12:11.224Z,18.83
2022-10-20T18:14:37.710Z,18.88
2022-10-20T18:17:04.232Z,18.67
2022-10-20T18:19:30.729Z,18.98
2022-10-20T18:21:57.300Z,19.03
2022-10-20T18:24:24.001Z,19.08
2022-10-20T18:26:50.507Z,17.80
2022-10-20T18:29:17.351Z,18.90
2022-10-20T18:31:45.473Z,17.88
2022-10-20T18:34:14.688Z,17.23
2022-10-20T18:36:44.950Z,18.15
2022-10-20T18:39:13.603Z,17.77
2022-10-20T18:41:41.128Z,18.13
2022-10-20T18:44:12.396Z,17.80
2022-10-20T18:46:39.650Z,17.30
2022-10-20T18:49:07.429Z,17.08
2022-10-20T18:51:34.764Z,18.77
2022-10-20T18:54:02.954Z,17.35
2022-10-20T18:56:30.531Z,17.67
2022-10-20T18:58:59.299Z,18.20
2022-10-20T19:01:28.851Z,19.45
2022-10-20T19:03:57.077Z,18.10
2022-10-20T19:06:27.325Z,17.35
2022-10-20T19:08:59.715Z,18.00
2022-10-20T19:11:28.669Z,17.80
2022-10-20T19:13:56.006Z,17.30
2022-10-20T19:16:26.176Z,17.52
2022-10-20T19:18:54.109Z,17.33
2022-10-20T19:21:21.786Z,17.52
2022-10-20T19:23:51.885Z,15.97
2022-10-20T19:26:25.051Z,16.20
2022-10-20T19:28:58.449Z,17.67
2022-10-20T19:31:25.425Z,20.73
2022-10-20T19:33:54.645Z,20.83
2022-10-20T19:36:21.761Z,18.37
2022-10-20T19:38:48.500Z,18.38
2022-10-20T19:41:15.505Z,16.23
2022-10-20T19:43:42.179Z,16.92
2022-10-20T19:46:12.479Z,15.40
2022-10-20T19:48:39.307Z,15.07
2022-10-20T19:51:06.503Z,15.35
2022-10-20T19:53:34.031Z,14.82
2022-10-20T19:56:00.552Z,14.73
2022-10-20T19:58:27.071Z,14.80
2022-10-20T20:00:57.799Z,15.30
2022-10-20T20:03:24.907Z,15.35
2022-10-20T20:06:16.129Z,15.30
2022-10-20T20:09:04.717Z,14.35
2022-10-20T20:11:31.491Z,14.18
2022-10-20T20:14:00.736Z,14.43
2022-10-20T20:16:28.801Z,14.60
2022-10-20T20:18:55.496Z,14.25
2022-10-20T20:21:23.258Z,14.55
2022-10-20T20:24:00.495Z,14.13
2022-10-20T20:26:33.270Z,14.30
2022-10-20T20:29:01.381Z,14.38
2022-10-20T20:31:28.783Z,13.35
2022-10-20T20:33:56.911Z,13.95
2022-10-20T20:36:26.151Z,14.40
2022-10-20T20:38:55.171Z,14.03
2022-10-20T20:41:26.058Z,14.20
2022-10-20T20:43:52.730Z,13.55
2022-10-20T20:46:21.384Z,13.73
2022-10-20T20:48:47.942Z,14.18
2022-10-20T20:51:15.435Z,14.47
2022-10-20T20:53:42.018Z,13.32
2022-10-20T20:56:11.026Z,13.70
2022-10-20T20:58:38.183Z,13.05
2022-10-20T21:01:08.704Z,12.77
2022-10-20T21:03:36.315Z,13.43
2022-10-20T21:06:12.392Z,13.57
2022-10-20T21:08:41.279Z,14.02
2022-10-20T21:11:13.085Z,14.48
2022-10-20T21:13:41.034Z,13.65
2022-10-20T21:16:14.761Z,14.27
2022-10-20T21:18:42.800Z,14.38
2022-10-20T21:21:30.366Z,14.07
2022-10-20T21:23:57.911Z,13.45
2022-10-20T21:26:25.724Z,13.82
2022-10-20T21:28:53.087Z,13.33
2022-10-20T21:31:22.038Z,13.57
2022-10-20T21:33:54.118Z,13.57
2022-10-20T21:36:21.555Z,13.55
2022-10-20T21:38:48.885Z,13.20
2022-10-20T21:41:21.128Z,13.33
2022-10-20T21:43:50.352Z,13.82
2022-10-20T21:46:22.276Z,13.85
2022-10-20T21:48:50.768Z,13.07
2022-10-20T21:51:21.772Z,13.15
2022-10-20T21:53:48.850Z,13.73
2022-10-20T21:56:16.070Z,14.10
2022-10-20T21:58:42.918Z,13.60
